Time;durP1;ratioP1;P1;durP2;ratioP2;P2;SDS_P1;SDS_P2;PMS_P1;PMS_P2;Temp;Humidity;BMP_temperature;BMP_pressure;BME280_temperature;BME280_humidity;BME280_pressure;Samples;Min_cycle;Max_cycle;Signal;HPM_P1;HPM_P2
2024/03/30 00:01:21;;;;;;;0.82;0.50;;;12.00;99.90;;;;;;5014307;28;20531;-77
2024/03/30 00:03:47;;;;;;;1.30;0.55;;;12.00;99.90;;;;;;5014809;28;20109;-76
2024/03/30 00:06:13;;;;;;;0.75;0.65;;;12.00;99.90;;;;;;5013187;28;20395;-76
2024/03/30 00:08:39;;;;;;;2.05;0.70;;;12.00;99.90;;;;;;5014921;28;20022;-77
2024/03/30 00:11:05;;;;;;;1.25;0.80;;;12.00;99.90;;;;;;5014059;28;20022;-77
2024/03/30 00:13:31;;;;;;;1.67;0.70;;;11.90;99.90;;;;;;5013493;28;20391;-77
2024/03/30 00:15:57;;;;;;;0.95;0.50;;;11.90;99.90;;;;;;5014051;28;20018;-77
2024/03/30 00:18:23;;;;;;;1.08;0.60;;;11.90;99.90;;;;;;5014419;28;20038;-77
2024/03/30 00:20:49;;;;;;;1.38;0.68;;;11.90;99.90;;;;;;5013945;28;20033;-77
2024/03/30 00:23:16;;;;;;;0.90;0.50;;;11.80;99.90;;;;;;5014410;28;20488;-77
2024/03/30 00:25:51;;;;;;;2.03;0.60;;;11.90;99.90;;;;;;5014049;28;20068;-77
2024/03/30 00:28:17;;;;;;;1.45;0.40;;;11.90;99.90;;;;;;5014682;28;20459;-76
2024/03/30 00:30:46;;;;;;;1.20;0.60;;;11.90;99.90;;;;;;5013907;28;20046;-77
2024/03/30 00:33:12;;;;;;;3.13;0.80;;;11.90;99.90;;;;;;5014134;28;20436;-76
2024/03/30 00:35:38;;;;;;;0.65;0.60;;;11.90;99.90;;;;;;5014291;28;20139;-76
2024/03/30 00:38:04;;;;;;;0.68;0.63;;;11.90;99.90;;;;;;5013620;28;20026;-76
2024/03/30 00:40:30;;;;;;;0.85;0.55;;;11.90;99.90;;;;;;5014298;28;20394;-76
2024/03/30 00:42:55;;;;;;;0.88;0.63;;;11.90;99.90;;;;;;5013590;28;20029;-77
2024/03/30 00:45:22;;;;;;;0.45;0.35;;;11.90;99.90;;;;;;5014389;28;20018;-76
2024/03/30 00:47:48;;;;;;;1.45;0.70;;;11.90;99.90;;;;;;5013485;28;20113;-77
2024/03/30 00:50:13;;;;;;;0.80;0.60;;;11.90;99.90;;;;;;5013938;28;20113;-77
2024/03/30 00:52:39;;;;;;;3.65;0.80;;;11.90;99.90;;;;;;5012058;28;20030;-77
2024/03/30 00:55:05;;;;;;;1.08;0.70;;;11.90;99.90;;;;;;5013866;28;20598;-77
2024/03/30 00:57:31;;;;;;;1.08;0.80;;;11.90;99.90;;;;;;5012373;28;20036;-77
2024/03/30 00:59:56;;;;;;;1.63;0.65;;;11.90;99.90;;;;;;5013757;28;20109;-77
2024/03/30 01:02:22;;;;;;;2.30;0.80;;;11.90;99.90;;;;;;5013086;28;20110;-77
2024/03/30 01:04:48;;;;;;;2.03;0.88;;;11.90;99.90;;;;;;5013710;28;20093;-77
2024/03/30 01:07:13;;;;;;;2.05;0.90;;;11.90;99.90;;;;;;5012987;28;20501;-77
2024/03/30 01:09:39;;;;;;;1.27;0.88;;;12.00;99.90;;;;;;5013475;28;20048;-77
2024/03/30 01:12:05;;;;;;;1.75;0.95;;;12.00;99.90;;;;;;5013050;28;20105;-77
2024/03/30 01:14:33;;;;;;;1.63;0.88;;;12.00;99.90;;;;;;5012178;28;20507;-77
2024/03/30 01:16:59;;;;;;;2.25;1.10;;;12.00;99.90;;;;;;5012629;28;20124;-76
2024/03/30 01:19:25;;;;;;;1.02;0.93;;;12.00;99.90;;;;;;5013551;28;20042;-77
2024/03/30 01:21:51;;;;;;;1.52;0.90;;;12.00;99.90;;;;;;5012857;28;20567;-77
2024/03/30 01:24:17;;;;;;;1.23;1.00;;;12.00;99.90;;;;;;5013676;28;20018;-76
2024/03/30 01:26:55;;;;;;;1.42;0.90;;;12.00;99.90;;;;;;5011616;28;20169;-77
2024/03/30 01:29:24;;;;;;;3.17;1.20;;;12.10;99.90;;;;;;5013378;28;20026;-77
2024/03/30 01:31:52;;;;;;;2.45;1.10;;;12.00;99.90;;;;;;5012633;28;20025;-77
2024/03/30 01:34:18;;;;;;;1.15;1.00;;;12.00;99.90;;;;;;5013374;28;20030;-77
2024/03/30 01:36:43;;;;;;;2.22;1.20;;;12.00;99.90;;;;;;5012216;28;20026;-76
2024/03/30 01:39:09;;;;;;;2.53;1.38;;;12.00;99.90;;;;;;5013394;28;20383;-77
2024/03/30 01:41:38;;;;;;;1.65;1.10;;;12.00;99.90;;;;;;5012601;28;20052;-77
2024/03/30 01:44:04;;;;;;;2.92;1.20;;;11.90;99.90;;;;;;5013345;28;20046;-77
2024/03/30 01:46:32;;;;;;;1.60;1.10;;;11.90;99.90;;;;;;5011041;28;20037;-76
2024/03/30 01:48:59;;;;;;;2.20;1.40;;;11.90;99.90;;;;;;5012992;28;20030;-77
2024/03/30 01:51:26;;;;;;;3.38;1.60;;;11.90;99.90;;;;;;5012333;28;20030;-77
2024/03/30 01:53:51;;;;;;;2.10;1.42;;;11.90;99.90;;;;;;5011601;28;20053;-76
2024/03/30 01:56:20;;;;;;;1.58;1.20;;;11.90;99.90;;;;;;5011867;28;20064;-76
2024/03/30 01:58:48;;;;;;;1.38;1.10;;;11.90;99.90;;;;;;5012546;28;20018;-76
2024/03/30 02:01:14;;;;;;;2.80;1.25;;;11.90;99.90;;;;;;5010391;28;20022;-76
2024/03/30 02:03:40;;;;;;;2.22;1.45;;;11.90;99.90;;;;;;5012370;28;20010;-76
2024/03/30 02:06:07;;;;;;;3.97;1.70;;;11.90;99.90;;;;;;5012093;28;20333;-76
2024/03/30 02:08:33;;;;;;;2.13;1.20;;;11.80;99.90;;;;;;5012192;28;20022;-75
2024/03/30 02:11:01;;;;;;;3.20;1.27;;;11.80;99.90;;;;;;5012771;28;20022;-77
2024/03/30 02:13:28;;;;;;;2.38;1.67;;;11.80;99.90;;;;;;5010209;28;20080;-76
2024/03/30 02:15:53;;;;;;;2.58;1.45;;;11.80;99.90;;;;;;5011151;28;20079;-76
2024/03/30 02:18:19;;;;;;;2.25;1.38;;;11.80;99.90;;;;;;5011550;28;20046;-75
2024/03/30 02:20:44;;;;;;;2.53;1.50;;;11.80;99.90;;;;;;5011288;28;20017;-75
2024/03/30 02:23:14;;;;;;;4.57;1.60;;;11.80;99.90;;;;;;5010465;28;20021;-75
2024/03/30 02:25:40;;;;;;;2.42;1.70;;;11.80;99.90;;;;;;5011052;28;20121;-75
2024/03/30 02:28:06;;;;;;;2.80;1.60;;;11.80;99.90;;;;;;5011543;28;20097;-75
2024/03/30 02:30:33;;;;;;;1.95;1.60;;;11.80;99.90;;;;;;5012259;28;20032;-76
2024/03/30 02:32:59;;;;;;;2.83;1.42;;;11.80;99.90;;;;;;5011501;28;20065;-76
2024/03/30 02:35:26;;;;;;;2.47;1.45;;;11.80;99.90;;;;;;5012710;28;20045;-75
2024/03/30 02:37:53;;;;;;;3.35;2.00;;;11.80;99.90;;;;;;5010232;28;20125;-75
2024/03/30 02:40:19;;;;;;;3.13;1.50;;;11.80;99.90;;;;;;5012105;28;20409;-75
2024/03/30 02:42:45;;;;;;;2.47;1.40;;;11.80;99.90;;;;;;5011353;28;20365;-75
2024/03/30 02:45:12;;;;;;;2.03;1.65;;;11.80;99.90;;;;;;5012341;28;20105;-75
2024/03/30 02:47:39;;;;;;;3.30;1.60;;;11.80;99.90;;;;;;5011238;28;20037;-75
2024/03/30 02:50:05;;;;;;;2.65;1.58;;;11.70;99.90;;;;;;5011949;28;20029;-75
2024/03/30 02:52:31;;;;;;;2.83;1.90;;;11.70;99.90;;;;;;5109102;23;20048;-93
2024/03/30 02:54:56;;;;;;;2.63;1.98;;;11.70;99.90;;;;;;5094995;28;20542;-93
2024/03/30 02:57:22;;;;;;;3.60;2.03;;;11.70;99.90;;;;;;5094546;28;20039;-93
2024/03/30 02:59:48;;;;;;;2.97;2.03;;;11.70;99.90;;;;;;5095119;28;20016;-94
2024/03/30 03:02:14;;;;;;;4.63;2.17;;;11.70;99.90;;;;;;5094387;28;20025;-93
2024/03/30 03:04:40;;;;;;;2.65;2.05;;;11.70;99.90;;;;;;5077432;28;20382;-94
2024/03/30 03:07:06;;;;;;;4.25;2.40;;;11.70;99.90;;;;;;5094585;28;20032;-94
2024/03/30 03:09:32;;;;;;;3.85;2.42;;;11.70;99.90;;;;;;5063782;28;20024;-94
2024/03/30 03:11:58;;;;;;;3.13;2.30;;;11.60;99.90;;;;;;5074351;28;20063;-93
2024/03/30 03:14:24;;;;;;;3.55;2.40;;;11.60;99.90;;;;;;5056816;28;20385;-96
2024/03/30 03:16:50;;;;;;;3.35;2.22;;;11.60;99.90;;;;;;5073300;28;20362;-94
2024/03/30 03:19:16;;;;;;;3.67;2.38;;;11.60;99.90;;;;;;5073751;28;20052;-94
2024/03/30 03:21:41;;;;;;;4.00;2.75;;;11.60;99.90;;;;;;5076541;28;20485;-92
2024/03/30 03:24:08;;;;;;;3.42;2.38;;;11.60;99.90;;;;;;5078109;28;20027;-93
2024/03/30 03:26:33;;;;;;;4.03;2.50;;;11.50;99.90;;;;;;5077338;28;20025;-94
2024/03/30 03:28:59;;;;;;;3.72;2.33;;;11.50;99.90;;;;;;5078005;28;20016;-92
2024/03/30 03:31:25;;;;;;;4.03;2.65;;;11.50;99.90;;;;;;5060062;28;20032;-92
2024/03/30 03:33:50;;;;;;;3.20;2.60;;;11.50;99.90;;;;;;5059960;28;20024;-94
2024/03/30 03:36:17;;;;;;;3.72;2.63;;;11.50;99.90;;;;;;5078301;28;20074;-92
2024/03/30 03:38:42;;;;;;;4.40;2.83;;;11.50;99.90;;;;;;5059987;28;20062;-92
2024/03/30 03:41:08;;;;;;;4.07;2.88;;;11.40;99.90;;;;;;5077753;28;20013;-92
2024/03/30 03:43:36;;;;;;;3.92;2.92;;;11.40;99.90;;;;;;5077141;28;20017;-93
2024/03/30 03:46:05;;;;;;;5.25;3.20;;;11.40;99.90;;;;;;5076965;28;20446;-92
2024/03/30 03:48:31;;;;;;;4.20;2.90;;;11.40;99.90;;;;;;5076712;28;20013;-94
2024/03/30 03:50:56;;;;;;;5.43;3.33;;;11.40;99.90;;;;;;5076990;28;20020;-92
2024/03/30 03:53:22;;;;;;;3.90;2.95;;;11.40;99.90;;;;;;5077087;28;20020;-92
2024/03/30 03:55:48;;;;;;;3.25;2.70;;;11.40;99.90;;;;;;5059415;28;20028;-93
2024/03/30 03:58:14;;;;;;;3.72;2.80;;;11.40;99.90;;;;;;5076598;28;20033;-93
2024/03/30 04:00:40;;;;;;;4.00;3.20;;;11.40;99.90;;;;;;5077478;28;20017;-93
2024/03/30 04:03:06;;;;;;;4.03;2.72;;;11.40;99.90;;;;;;5058985;28;20390;-93
2024/03/30 04:05:32;;;;;;;3.92;3.03;;;11.40;99.90;;;;;;5077238;28;20017;-93
2024/03/30 04:07:58;;;;;;;5.18;3.15;;;11.30;99.90;;;;;;5076480;28;20048;-93
2024/03/30 04:10:25;;;;;;;4.47;3.25;;;11.30;99.90;;;;;;5059581;28;20031;-92
2024/03/30 04:12:51;;;;;;;4.63;3.47;;;11.30;99.90;;;;;;5059361;28;20024;-92
2024/03/30 04:15:17;;;;;;;3.50;2.80;;;11.30;99.90;;;;;;5059638;28;20078;-92
2024/03/30 04:17:43;;;;;;;4.82;3.50;;;11.30;99.90;;;;;;5076462;28;20028;-93
2024/03/30 04:20:09;;;;;;;6.30;3.70;;;11.30;99.90;;;;;;5077780;28;20032;-92
2024/03/30 04:22:35;;;;;;;5.07;3.17;;;11.30;99.90;;;;;;5060307;28;20012;-93
2024/03/30 04:25:00;;;;;;;5.10;3.47;;;11.30;99.90;;;;;;5080247;28;20031;-92
2024/03/30 04:27:27;;;;;;;5.10;3.55;;;11.30;99.90;;;;;;5060674;28;20092;-93
2024/03/30 04:29:52;;;;;;;5.32;3.38;;;11.30;99.90;;;;;;5061056;28;20025;-93
2024/03/30 04:32:18;;;;;;;6.32;3.72;;;11.30;99.90;;;;;;5076813;28;20108;-93
2024/03/30 04:34:45;;;;;;;5.18;3.60;;;11.30;99.90;;;;;;5080474;28;20020;-94
2024/03/30 04:37:11;;;;;;;5.25;3.80;;;11.30;99.90;;;;;;5066317;28;20053;-92
2024/03/30 04:39:36;;;;;;;5.53;3.83;;;11.30;99.90;;;;;;5075195;28;20092;-94
2024/03/30 04:42:02;;;;;;;6.00;3.70;;;11.30;99.90;;;;;;5098177;28;20011;-93
2024/03/30 04:44:28;;;;;;;5.43;3.85;;;11.30;99.90;;;;;;5079828;28;20016;-93
2024/03/30 04:46:54;;;;;;;5.75;4.30;;;11.20;99.90;;;;;;5080713;28;20043;-93
2024/03/30 04:49:19;;;;;;;6.05;4.30;;;11.30;99.90;;;;;;5064596;28;20009;-94
2024/03/30 04:51:45;;;;;;;5.20;4.30;;;11.30;99.90;;;;;;5062863;28;20510;-92
2024/03/30 04:54:11;;;;;;;4.35;3.78;;;11.30;99.90;;;;;;5062722;28;20028;-95
2024/03/30 04:56:36;;;;;;;6.97;4.68;;;11.20;99.90;;;;;;5080368;28;20051;-93
2024/03/30 04:59:02;;;;;;;7.25;4.43;;;11.30;99.90;;;;;;5059771;28;20017;-95
2024/03/30 05:01:28;;;;;;;7.72;4.65;;;11.20;99.90;;;;;;5076474;28;20022;-94
2024/03/30 05:03:54;;;;;;;5.40;4.20;;;11.30;99.90;;;;;;5058446;28;20021;-94
2024/03/30 05:06:19;;;;;;;6.32;4.80;;;11.30;99.90;;;;;;5058316;28;20021;-95
2024/03/30 05:08:45;;;;;;;5.80;4.45;;;11.20;99.90;;;;;;5075273;28;20031;-93
2024/03/30 05:11:11;;;;;;;7.38;5.13;;;11.20;99.90;;;;;;5058212;28;20023;-94
2024/03/30 05:13:37;;;;;;;5.93;4.65;;;11.20;99.90;;;;;;5075159;28;20023;-93
2024/03/30 05:16:02;;;;;;;6.30;5.07;;;11.20;99.90;;;;;;5058061;28;20548;-94
2024/03/30 05:18:28;;;;;;;5.47;4.63;;;11.20;99.90;;;;;;5075472;28;20055;-94
2024/03/30 05:20:57;;;;;;;6.13;5.13;;;11.20;99.90;;;;;;5076263;28;20394;-95
2024/03/30 05:23:25;;;;;;;5.63;4.72;;;11.20;99.90;;;;;;5058224;28;20027;-95
2024/03/30 05:25:51;;;;;;;6.45;5.07;;;11.20;99.90;;;;;;5075634;28;20541;-94
2024/03/30 05:28:19;;;;;;;6.65;5.22;;;11.20;99.90;;;;;;5075296;28;20029;-94
2024/03/30 05:30:46;;;;;;;7.10;5.15;;;11.20;99.90;;;;;;5057671;28;20031;-94
2024/03/30 05:33:12;;;;;;;6.50;4.85;;;11.20;99.90;;;;;;5057886;28;20036;-94
2024/03/30 05:35:39;;;;;;;7.90;5.60;;;11.10;99.90;;;;;;5058246;28;20020;-94
2024/03/30 05:38:05;;;;;;;7.38;5.53;;;11.20;99.90;;;;;;5057059;28;20481;-94
2024/03/30 05:40:32;;;;;;;6.38;5.35;;;11.10;99.90;;;;;;5057481;28;20074;-93
2024/03/30 05:42:59;;;;;;;6.65;5.13;;;11.10;99.90;;;;;;5056892;28;20070;-94
2024/03/30 05:45:25;;;;;;;8.25;5.38;;;11.20;99.90;;;;;;5075326;28;20024;-92
2024/03/30 05:47:50;;;;;;;9.95;5.93;;;11.10;99.90;;;;;;5074891;28;20021;-94
2024/03/30 05:50:16;;;;;;;8.27;5.90;;;11.10;99.90;;;;;;5075366;28;20021;-94
2024/03/30 05:52:42;;;;;;;7.97;5.80;;;11.10;99.90;;;;;;5074582;28;20063;-94
2024/03/30 05:55:07;;;;;;;8.82;5.85;;;11.10;99.90;;;;;;5074815;28;20085;-94
2024/03/30 05:57:33;;;;;;;8.73;5.90;;;11.10;99.90;;;;;;5074790;28;20446;-94
2024/03/30 05:59:58;;;;;;;7.13;4.97;;;11.10;99.90;;;;;;5057287;28;20038;-93
2024/03/30 06:02:25;;;;;;;7.40;4.97;;;11.10;99.90;;;;;;5074188;28;20020;-95
2024/03/30 06:04:51;;;;;;;8.02;5.50;;;11.20;99.90;;;;;;5057035;28;20123;-94
2024/03/30 06:07:17;;;;;;;7.45;5.00;;;11.10;99.90;;;;;;5056648;28;20086;-94
2024/03/30 06:09:43;;;;;;;8.15;4.70;;;11.10;99.90;;;;;;5056789;28;20028;-93
2024/03/30 06:12:09;;;;;;;6.22;4.38;;;11.10;99.90;;;;;;5074471;28;20028;-95
2024/03/30 06:14:35;;;;;;;6.97;4.32;;;11.10;99.90;;;;;;5074929;28;20142;-94
2024/03/30 06:17:00;;;;;;;6.25;4.13;;;11.10;99.90;;;;;;5074954;28;20024;-94
2024/03/30 06:19:26;;;;;;;6.07;4.00;;;11.10;99.90;;;;;;5056971;28;20019;-95
2024/03/30 06:21:54;;;;;;;7.03;4.68;;;11.10;99.90;;;;;;5074666;28;20012;-94
2024/03/30 06:24:20;;;;;;;7.13;4.72;;;11.10;99.90;;;;;;5056834;28;20104;-94
2024/03/30 06:26:46;;;;;;;7.53;5.50;;;11.10;99.90;;;;;;5074769;28;20048;-94
2024/03/30 06:29:11;;;;;;;7.43;5.45;;;11.10;99.90;;;;;;5074781;28;20050;-93
2024/03/30 06:31:37;;;;;;;7.70;5.45;;;11.20;99.90;;;;;;5057116;28;20029;-94
2024/03/30 06:34:04;;;;;;;7.65;5.28;;;11.20;99.90;;;;;;5056981;28;20026;-94
2024/03/30 06:36:31;;;;;;;6.47;4.30;;;11.20;99.90;;;;;;5057472;28;20024;-95
2024/03/30 06:38:56;;;;;;;6.78;5.05;;;11.20;99.90;;;;;;5074312;28;20020;-94
2024/03/30 06:44:07;;;;;;;8.40;5.65;;;11.20;99.90;;;;;;5074593;28;20036;-95
2024/03/30 06:46:32;;;;;;;9.20;6.40;;;11.20;99.90;;;;;;5074926;28;20394;-94
2024/03/30 06:48:58;;;;;;;9.82;6.97;;;11.20;99.90;;;;;;5074536;28;20020;-94
2024/03/30 06:51:25;;;;;;;10.23;7.43;;;11.20;99.90;;;;;;5074374;28;20437;-94
2024/03/30 06:53:53;;;;;;;10.15;7.47;;;11.20;99.90;;;;;;5056119;28;20050;-94
2024/03/30 06:56:19;;;;;;;9.85;6.78;;;11.20;99.90;;;;;;5076789;28;20021;-94
2024/03/30 06:58:44;;;;;;;11.88;7.55;;;11.20;99.90;;;;;;5077997;28;20031;-94
2024/03/30 07:01:10;;;;;;;11.30;7.80;;;11.20;99.90;;;;;;5061364;28;20017;-93
2024/03/30 07:03:35;;;;;;;11.70;7.88;;;11.20;99.90;;;;;;5078521;28;20081;-95
2024/03/30 07:06:01;;;;;;;12.50;7.95;;;11.20;99.90;;;;;;5061238;28;20020;-94
2024/03/30 07:08:27;;;;;;;10.23;7.63;;;11.20;99.90;;;;;;5078144;28;20120;-96
2024/03/30 07:10:53;;;;;;;10.60;8.13;;;11.30;99.90;;;;;;5078826;28;20035;-94
2024/03/30 07:13:18;;;;;;;10.90;8.00;;;11.30;99.90;;;;;;5060493;28;20052;-95
2024/03/30 07:15:44;;;;;;;10.98;8.20;;;11.30;99.90;;;;;;5078447;28;20021;-94
2024/03/30 07:18:11;;;;;;;10.18;7.75;;;11.30;99.90;;;;;;5078466;28;20029;-95
2024/03/30 07:20:37;;;;;;;12.57;8.55;;;11.30;99.90;;;;;;5060900;28;20119;-94
2024/03/30 07:23:03;;;;;;;11.68;8.05;;;11.30;99.90;;;;;;5078153;28;20042;-95
2024/03/30 07:25:29;;;;;;;10.77;8.38;;;11.40;99.90;;;;;;5060544;28;20488;-93
2024/03/30 07:27:54;;;;;;;9.07;7.18;;;11.40;99.90;;;;;;5077604;28;20047;-94
2024/03/30 07:30:20;;;;;;;11.05;7.65;;;11.40;99.90;;;;;;5078485;28;20029;-93
2024/03/30 07:32:46;;;;;;;9.73;7.63;;;11.40;99.90;;;;;;5077992;28;20017;-94
2024/03/30 07:35:11;;;;;;;10.70;8.15;;;11.40;99.90;;;;;;5078636;28;20031;-94
2024/03/30 07:37:37;;;;;;;10.20;7.50;;;11.50;99.90;;;;;;5078179;28;20021;-93
2024/03/30 07:40:04;;;;;;;11.27;8.15;;;11.50;99.90;;;;;;5060269;28;20017;-93
2024/03/30 07:42:30;;;;;;;8.85;6.28;;;11.50;99.90;;;;;;5077958;28;20024;-93
2024/03/30 07:44:55;;;;;;;9.65;6.88;;;11.50;99.90;;;;;;5079066;28;20027;-94
2024/03/30 07:47:21;;;;;;;10.13;7.28;;;11.50;99.90;;;;;;5078318;28;20119;-93
2024/03/30 07:49:47;;;;;;;10.77;8.02;;;11.50;99.90;;;;;;5078420;28;20056;-95
2024/03/30 07:52:13;;;;;;;8.30;6.85;;;11.50;99.90;;;;;;5056966;28;20048;-92
2024/03/30 07:54:39;;;;;;;9.70;7.22;;;11.50;99.90;;;;;;5057359;28;20024;-94
2024/03/30 07:57:05;;;;;;;10.90;7.68;;;11.50;99.90;;;;;;5057912;28;20032;-94
2024/03/30 07:59:30;;;;;;;8.48;7.25;;;11.50;99.90;;;;;;5058197;28;20020;-94
2024/03/30 08:01:56;;;;;;;9.55;7.50;;;11.50;99.90;;;;;;5058340;28;20025;-94
2024/03/30 08:04:22;;;;;;;9.80;7.25;;;11.60;99.90;;;;;;5058749;28;20112;-95
2024/03/30 08:06:49;;;;;;;8.18;7.03;;;11.50;99.90;;;;;;5062420;28;20021;-94
2024/03/30 08:09:15;;;;;;;9.95;6.90;;;11.60;99.90;;;;;;5059090;28;20029;-94
2024/03/30 08:11:43;;;;;;;8.05;6.80;;;11.60;99.90;;;;;;5058142;28;20032;-94
2024/03/30 08:14:09;;;;;;;8.88;6.95;;;11.60;99.90;;;;;;5059223;28;20029;-94
2024/03/30 08:16:35;;;;;;;9.70;7.55;;;11.60;99.90;;;;;;5058251;28;20493;-94
2024/03/30 08:19:03;;;;;;;8.65;7.00;;;11.60;99.90;;;;;;5056925;28;20013;-96
2024/03/30 08:21:30;;;;;;;9.60;7.15;;;11.60;99.90;;;;;;5058624;28;20390;-93
2024/03/30 08:23:55;;;;;;;8.77;6.22;;;11.70;99.90;;;;;;5056830;28;20052;-95
2024/03/30 08:26:21;;;;;;;9.13;7.30;;;11.70;99.90;;;;;;5057939;28;20466;-96
2024/03/30 08:28:48;;;;;;;9.75;7.20;;;11.70;99.90;;;;;;5059589;28;20017;-94
2024/03/30 08:31:14;;;;;;;8.70;6.80;;;11.70;99.90;;;;;;5058699;28;20041;-95
2024/03/30 08:33:40;;;;;;;9.05;7.25;;;11.80;99.90;;;;;;5057495;28;20028;-94
2024/03/30 08:36:06;;;;;;;8.35;6.80;;;11.80;99.90;;;;;;5057875;28;20033;-95
2024/03/30 08:38:32;;;;;;;8.93;7.40;;;11.80;99.90;;;;;;5057715;28;20024;-96
2024/03/30 08:40:58;;;;;;;7.13;6.38;;;11.90;99.90;;;;;;5057815;28;20382;-95
2024/03/30 08:43:25;;;;;;;7.45;6.25;;;12.00;99.90;;;;;;5060208;28;20055;-96
2024/03/30 08:45:54;;;;;;;9.82;6.93;;;12.10;99.90;;;;;;5056827;28;20509;-96
2024/03/30 08:48:20;;;;;;;7.65;6.45;;;12.10;99.90;;;;;;5056683;28;20032;-96
2024/03/30 08:50:46;;;;;;;8.00;6.25;;;12.20;99.90;;;;;;5056602;28;20029;-95
2024/03/30 08:53:13;;;;;;;9.00;6.50;;;12.30;99.90;;;;;;5076881;28;20021;-96
2024/03/30 08:55:39;;;;;;;8.27;5.85;;;12.40;99.90;;;;;;5059505;28;20111;-94
2024/03/30 08:58:06;;;;;;;7.88;6.18;;;12.40;99.90;;;;;;5076760;28;20501;-95
2024/03/30 09:00:33;;;;;;;7.70;5.90;;;12.50;99.90;;;;;;5077583;28;20016;-95
2024/03/30 09:02:59;;;;;;;7.82;5.95;;;12.50;99.90;;;;;;5076780;28;20024;-95
2024/03/30 09:05:29;;;;;;;8.57;5.25;;;12.60;99.90;;;;;;5059317;28;20017;-96
2024/03/30 09:07:55;;;;;;;7.57;5.65;;;12.60;99.90;;;;;;5076352;28;20032;-95
2024/03/30 09:10:23;;;;;;;11.77;6.05;;;12.70;99.90;;;;;;5077452;28;20130;-95
2024/03/30 09:12:48;;;;;;;6.97;4.75;;;12.70;99.90;;;;;;5075987;28;20021;-95
2024/03/30 09:15:17;;;;;;;8.40;5.55;;;12.80;99.90;;;;;;5059304;28;20104;-96
2024/03/30 09:17:43;;;;;;;9.18;5.70;;;12.90;99.90;;;;;;5076033;28;20054;-96
2024/03/30 09:20:09;;;;;;;8.23;4.75;;;12.90;99.90;;;;;;5077647;28;20017;-96
2024/03/30 09:22:34;;;;;;;8.50;4.88;;;13.00;99.90;;;;;;5077005;28;20477;-96
2024/03/30 09:25:03;;;;;;;10.13;4.38;;;13.00;99.90;;;;;;5077360;28;20012;-94
2024/03/30 09:27:31;;;;;;;9.25;4.72;;;13.00;99.90;;;;;;5058914;28;20044;-96
2024/03/30 09:29:56;;;;;;;14.65;5.40;;;13.10;99.90;;;;;;5075783;28;20040;-95
2024/03/30 09:32:23;;;;;;;11.48;4.53;;;13.10;99.90;;;;;;5058386;28;20036;-96
2024/03/30 09:34:49;;;;;;;8.00;4.45;;;13.10;99.90;;;;;;5058332;28;20024;-96
2024/03/30 09:37:15;;;;;;;11.13;4.85;;;13.20;99.90;;;;;;5076379;28;20555;-96
2024/03/30 09:39:40;;;;;;;10.50;5.20;;;13.20;99.90;;;;;;5064060;28;20039;-96
2024/03/30 09:42:15;;;;;;;14.43;5.25;;;13.20;99.90;;;;;;5081505;28;20492;-95
2024/03/30 09:44:41;;;;;;;9.82;4.60;;;13.20;99.90;;;;;;5076993;28;20024;-96
2024/03/30 09:47:09;;;;;;;10.15;4.40;;;13.30;99.90;;;;;;5076674;28;20017;-94
2024/03/30 09:49:36;;;;;;;15.10;4.88;;;13.30;99.90;;;;;;5076510;28;20032;-95
2024/03/30 09:52:04;;;;;;;13.05;3.80;;;13.30;99.90;;;;;;5076290;28;20043;-93
2024/03/30 09:54:31;;;;;;;8.70;3.97;;;13.30;99.90;;;;;;5058186;28;20044;-96
2024/03/30 09:56:57;;;;;;;16.88;4.40;;;13.40;99.90;;;;;;5078637;28;20101;-95
2024/03/30 09:59:24;;;;;;;12.80;4.60;;;13.40;99.90;;;;;;5078761;28;20035;-95
2024/03/30 10:01:50;;;;;;;20.88;4.82;;;13.50;99.90;;;;;;5062426;28;20047;-96
2024/03/30 10:04:15;;;;;;;14.55;4.00;;;13.50;99.90;;;;;;5062977;28;20024;-95
2024/03/30 10:06:48;;;;;;;17.45;4.45;;;13.50;99.90;;;;;;5067795;28;20020;-95
2024/03/30 10:09:15;;;;;;;18.67;4.30;;;13.60;99.90;;;;;;5066423;28;20105;-95
2024/03/30 10:11:43;;;;;;;14.68;3.65;;;13.60;99.90;;;;;;5082726;28;20020;-96
2024/03/30 10:14:33;;;;;;;18.48;4.43;;;13.80;99.90;;;;;;5083456;28;20044;-96
2024/03/30 10:17:00;;;;;;;14.73;4.35;;;13.90;99.90;;;;;;5078498;28;20047;-96
2024/03/30 10:19:28;;;;;;;14.45;4.47;;;14.00;99.90;;;;;;5075838;28;20024;-96
2024/03/30 10:21:55;;;;;;;13.50;4.35;;;14.00;99.90;;;;;;5077257;28;20028;-96
2024/03/30 10:24:21;;;;;;;14.90;4.07;;;14.10;99.90;;;;;;5077357;28;20012;-96
2024/03/30 10:26:48;;;;;;;13.23;4.10;;;14.10;99.90;;;;;;5058166;28;20020;-96
2024/03/30 10:29:13;;;;;;;16.60;3.97;;;14.10;99.90;;;;;;5077097;28;20027;-96
2024/03/30 10:31:43;;;;;;;14.82;3.25;;;14.10;99.90;;;;;;5057978;28;20024;-96
2024/03/30 10:34:09;;;;;;;13.98;3.88;;;14.10;99.90;;;;;;5079832;28;20016;-96
2024/03/30 10:36:37;;;;;;;18.55;4.32;;;14.00;99.90;;;;;;5075801;28;20021;-96
2024/03/30 10:39:04;;;;;;;12.23;3.72;;;14.10;99.90;;;;;;5058368;28;20480;-96
2024/03/30 10:41:30;;;;;;;17.17;3.85;;;14.10;99.90;;;;;;5075922;28;20031;-95
2024/03/30 10:43:56;;;;;;;16.48;4.10;;;14.10;99.90;;;;;;5058027;28;20056;-96
2024/03/30 10:46:26;;;;;;;13.35;3.97;;;14.20;99.90;;;;;;5076839;28;20032;-95
2024/03/30 10:48:52;;;;;;;11.60;3.35;;;14.20;99.90;;;;;;5076689;28;20017;-96
2024/03/30 10:51:23;;;;;;;17.33;3.78;;;14.30;99.90;;;;;;5061185;28;20040;-96
2024/03/30 10:53:49;;;;;;;;;;;14.30;99.90;;;;;;5061060;28;20032;-96
2024/03/30 10:56:14;;;;;;;13.32;3.42;;;14.40;99.90;;;;;;5080250;28;19909;-95
2024/03/30 10:58:41;;;;;;;21.80;4.15;;;14.40;99.90;;;;;;5088717;28;20074;-96
2024/03/30 11:01:11;;;;;;;14.80;3.10;;;14.40;99.90;;;;;;5088146;28;20466;-96
2024/03/30 11:03:38;;;;;;;15.53;2.77;;;14.50;99.90;;;;;;5091357;28;20016;-96
2024/03/30 11:06:05;;;;;;;15.55;3.65;;;14.60;99.90;;;;;;5094204;28;20036;-95
2024/03/30 11:08:34;;;;;;;14.63;3.17;;;14.60;99.90;;;;;;5090108;28;20119;-96
2024/03/30 11:11:01;;;;;;;20.77;3.05;;;14.60;99.90;;;;;;5069754;28;20059;-96
2024/03/30 11:13:27;;;;;;;20.85;3.53;;;14.70;99.90;;;;;;5077966;28;20043;-96
2024/03/30 11:15:55;;;;;;;18.88;3.90;;;14.70;99.90;;;;;;5085018;28;20486;-96
2024/03/30 11:18:32;;;;;;;17.38;3.40;;;14.80;99.90;;;;;;5079982;28;20039;-96
2024/03/30 11:21:00;;;;;;;21.73;3.85;;;14.80;99.90;;;;;;5081474;28;20024;-96
2024/03/30 11:23:44;;;;;;;12.70;2.90;;;14.80;99.90;;;;;;5086029;28;20025;-96
2024/03/30 11:26:10;;;;;;;22.40;3.95;;;14.80;99.90;;;;;;5066014;28;20021;-96
2024/03/30 11:28:48;;;;;;;16.65;3.38;;;14.80;99.90;;;;;;5057491;28;20016;-96
2024/03/30 11:31:24;;;;;;;18.23;3.35;;;14.90;99.90;;;;;;5062099;28;20074;-96
2024/03/30 11:34:04;;;;;;;18.77;3.47;;;14.90;99.90;;;;;;5061864;28;20124;-96
2024/03/30 11:36:47;;;;;;;20.33;3.83;;;15.00;99.90;;;;;;5058911;28;20032;-96
2024/03/30 11:39:32;;;;;;;18.63;4.07;;;15.00;99.90;;;;;;5059963;28;20123;-95
2024/03/30 11:42:08;;;;;;;21.40;5.00;;;15.10;99.90;;;;;;5061364;28;20485;-95
2024/03/30 11:44:35;;;;;;;15.73;3.20;;;15.00;99.90;;;;;;5062548;28;20020;-96
2024/03/30 11:47:01;;;;;;;19.00;3.88;;;15.10;99.90;;;;;;5062663;28;20024;-96
2024/03/30 11:49:27;;;;;;;17.17;4.13;;;15.10;99.90;;;;;;5061916;28;20034;-96
2024/03/30 11:51:53;;;;;;;20.33;4.72;;;15.10;99.90;;;;;;5079250;28;20041;-96
2024/03/30 11:54:23;;;;;;;19.08;3.42;;;15.10;99.90;;;;;;5080781;28;20043;-96
2024/03/30 11:57:14;;;;;;;18.50;3.63;;;15.10;99.90;;;;;;5079652;28;20051;-96
2024/03/30 11:59:44;;;;;;;14.57;3.72;;;15.20;99.90;;;;;;5078479;28;20024;-96
2024/03/30 12:02:12;;;;;;;23.75;3.90;;;15.20;99.90;;;;;;5060399;28;20035;-96
2024/03/30 12:04:47;;;;;;;21.35;3.97;;;15.30;99.90;;;;;;5078915;28;20020;-96
2024/03/30 12:07:14;;;;;;;19.88;4.40;;;15.40;99.90;;;;;;5078695;28;20024;-96
2024/03/30 12:09:40;;;;;;;25.10;5.03;;;15.40;99.90;;;;;;5062319;28;20062;-96
2024/03/30 12:12:24;;;;;;;29.70;5.65;;;15.40;99.90;;;;;;5078784;28;20032;-95
2024/03/30 12:14:53;;;;;;;25.13;4.68;;;15.30;99.90;;;;;;5077674;28;20025;-95
2024/03/30 12:17:18;;;;;;;29.20;4.88;;;15.30;99.90;;;;;;5078266;28;20031;-94
2024/03/30 12:19:46;;;;;;;29.70;4.72;;;15.30;99.90;;;;;;5079673;28;20024;-95
2024/03/30 12:22:12;;;;;;;30.15;5.63;;;15.30;99.90;;;;;;5061668;28;20021;-96
2024/03/30 12:24:38;;;;;;;29.80;6.45;;;15.40;99.90;;;;;;5080399;28;20017;-95
2024/03/30 12:27:04;;;;;;;33.83;4.30;;;15.40;99.90;;;;;;5078986;28;20044;-96
2024/03/30 12:29:30;;;;;;;22.52;4.05;;;15.50;99.90;;;;;;5078913;28;20034;-94
2024/03/30 12:31:56;;;;;;;27.00;4.05;;;15.50;99.90;;;;;;5063313;28;20119;-96
2024/03/30 12:34:24;;;;;;;31.30;4.32;;;15.50;99.90;;;;;;5061647;28;20020;-96
2024/03/30 12:36:50;;;;;;;20.90;4.32;;;15.60;99.90;;;;;;5062363;28;20095;-96
2024/03/30 12:39:19;;;;;;;24.77;4.72;;;15.60;99.90;;;;;;5062770;28;20119;-96
2024/03/30 12:41:46;;;;;;;22.80;3.13;;;15.60;99.90;;;;;;5082597;28;20076;-95
2024/03/30 12:44:12;;;;;;;27.17;4.35;;;15.60;99.90;;;;;;5081716;28;20025;-96